sensor_id;sensor_type;location;lat;lon;timestamp;temperature;humidity
26051;DHT22;13825;53.496;10.020;2023-02-12T00:01:41;6.70;99.90
26051;DHT22;13825;53.496;10.020;2023-02-12T00:04:20;6.70;99.90
26051;DHT22;13825;53.496;10.020;2023-02-12T00:06:55;6.70;99.90
26051;DHT22;13825;53.496;10.020;2023-02-12T00:09:59;6.70;99.90
26051;DHT22;13825;53.496;10.020;2023-02-12T00:12:35;6.70;99.90
26051;DHT22;13825;53.496;10.020;2023-02-12T00:15:20;6.70;99.90
26051;DHT22;13825;53.496;10.020;2023-02-12T00:17:52;6.70;99.90
26051;DHT22;13825;53.496;10.020;2023-02-12T00:20:36;6.70;99.90
26051;DHT22;13825;53.496;10.020;2023-02-12T00:23:23;6.70;99.90
26051;DHT22;13825;53.496;10.020;2023-02-12T00:26:12;6.70;99.90
26051;DHT22;13825;53.496;10.020;2023-02-12T00:29:02;6.70;99.90
26051;DHT22;13825;53.496;10.020;2023-02-12T00:31:45;6.70;99.90
26051;DHT22;13825;53.496;10.020;2023-02-12T00:34:38;6.70;99.90
26051;DHT22;13825;53.496;10.020;2023-02-12T00:37:16;6.70;99.90
26051;DHT22;13825;53.496;10.020;2023-02-12T00:40:05;6.70;99.90
26051;DHT22;13825;53.496;10.020;2023-02-12T00:42:52;6.60;99.90
26051;DHT22;13825;53.496;10.020;2023-02-12T00:45:34;6.60;99.90
26051;DHT22;13825;53.496;10.020;2023-02-12T00:48:18;6.60;99.90
26051;DHT22;13825;53.496;10.020;2023-02-12T00:50:54;6.60;99.90
26051;DHT22;13825;53.496;10.020;2023-02-12T00:53:41;6.60;99.90
26051;DHT22;13825;53.496;10.020;2023-02-12T00:56:31;6.60;99.90
26051;DHT22;13825;53.496;10.020;2023-02-12T00:59:06;6.60;99.90
26051;DHT22;13825;53.496;10.020;2023-02-12T01:01:57;6.60;99.90
26051;DHT22;13825;53.496;10.020;2023-02-12T01:04:40;6.50;99.90
26051;DHT22;13825;53.496;10.020;2023-02-12T01:07:47;6.50;99.90
26051;DHT22;13825;53.496;10.020;2023-02-12T01:10:33;6.60;99.90
26051;DHT22;13825;53.496;10.020;2023-02-12T01:13:11;6.60;99.90
26051;DHT22;13825;53.496;10.020;2023-02-12T01:16:03;6.60;99.90
26051;DHT22;13825;53.496;10.020;2023-02-12T01:18:40;6.60;99.90
26051;DHT22;13825;53.496;10.020;2023-02-12T01:21:33;6.60;99.90
26051;DHT22;13825;53.496;10.020;2023-02-12T01:24:12;6.60;99.90
26051;DHT22;13825;53.496;10.020;2023-02-12T01:26:54;6.60;99.90
26051;DHT22;13825;53.496;10.020;2023-02-12T01:29:29;6.50;99.90
26051;DHT22;13825;53.496;10.020;2023-02-12T01:32:29;6.60;99.90
26051;DHT22;13825;53.496;10.020;2023-02-12T01:35:05;6.50;99.90
26051;DHT22;13825;53.496;10.020;2023-02-12T01:37:51;6.50;99.90
26051;DHT22;13825;53.496;10.020;2023-02-12T01:40:34;6.50;99.90
26051;DHT22;13825;53.496;10.020;2023-02-12T01:43:13;6.50;99.90
26051;DHT22;13825;53.496;10.020;2023-02-12T01:46:17;6.50;99.90
26051;DHT22;13825;53.496;10.020;2023-02-12T01:48:59;6.50;99.90
26051;DHT22;13825;53.496;10.020;2023-02-12T01:51:46;6.40;99.90
26051;DHT22;13825;53.496;10.020;2023-02-12T01:54:30;6.40;99.90
26051;DHT22;13825;53.496;10.020;2023-02-12T01:57:06;6.40;99.90
26051;DHT22;13825;53.496;10.020;2023-02-12T01:59:53;6.40;99.90
26051;DHT22;13825;53.496;10.020;2023-02-12T02:02:39;6.40;99.90
26051;DHT22;13825;53.496;10.020;2023-02-12T02:05:57;6.30;99.90
26051;DHT22;13825;53.496;10.020;2023-02-12T02:08:25;6.30;99.90
26051;DHT22;13825;53.496;10.020;2023-02-12T02:11:03;6.30;99.90
26051;DHT22;13825;53.496;10.020;2023-02-12T02:13:58;6.30;99.90
26051;DHT22;13825;53.496;10.020;2023-02-12T02:16:50;6.30;99.90
26051;DHT22;13825;53.496;10.020;2023-02-12T02:19:54;6.20;99.90
26051;DHT22;13825;53.496;10.020;2023-02-12T02:22:42;6.30;99.90
26051;DHT22;13825;53.496;10.020;2023-02-12T02:32:38;6.30;99.90
26051;DHT22;13825;53.496;10.020;2023-02-12T02:35:19;6.20;99.90
26051;DHT22;13825;53.496;10.020;2023-02-12T02:38:06;6.30;99.90
26051;DHT22;13825;53.496;10.020;2023-02-12T02:40:56;6.30;99.90
26051;DHT22;13825;53.496;10.020;2023-02-12T02:43:37;6.30;99.90
26051;DHT22;13825;53.496;10.020;2023-02-12T02:46:18;6.20;99.90
26051;DHT22;13825;53.496;10.020;2023-02-12T02:49:07;6.30;99.90
26051;DHT22;13825;53.496;10.020;2023-02-12T02:51:58;6.20;99.90
26051;DHT22;13825;53.496;10.020;2023-02-12T02:54:38;6.20;99.90
26051;DHT22;13825;53.496;10.020;2023-02-12T02:57:25;6.20;99.90
26051;DHT22;13825;53.496;10.020;2023-02-12T03:00:04;6.20;99.90
26051;DHT22;13825;53.496;10.020;2023-02-12T03:02:37;6.20;99.90
26051;DHT22;13825;53.496;10.020;2023-02-12T03:05:22;6.20;99.90
26051;DHT22;13825;53.496;10.020;2023-02-12T03:08:06;6.20;99.90
26051;DHT22;13825;53.496;10.020;2023-02-12T03:10:47;6.20;99.90
26051;DHT22;13825;53.496;10.020;2023-02-12T03:13:33;6.20;99.90
26051;DHT22;13825;53.496;10.020;2023-02-12T03:16:21;6.30;99.90
26051;DHT22;13825;53.496;10.020;2023-02-12T03:19:09;6.20;99.90
26051;DHT22;13825;53.496;10.020;2023-02-12T03:22:03;6.20;99.90
26051;DHT22;13825;53.496;10.020;2023-02-12T03:25:24;6.30;99.90
26051;DHT22;13825;53.496;10.020;2023-02-12T03:27:51;6.20;99.90
26051;DHT22;13825;53.496;10.020;2023-02-12T03:30:27;6.20;99.90
26051;DHT22;13825;53.496;10.020;2023-02-12T03:33:11;6.20;99.90
26051;DHT22;13825;53.496;10.020;2023-02-12T03:35:58;6.20;99.90
26051;DHT22;13825;53.496;10.020;2023-02-12T03:38:43;6.20;99.90
26051;DHT22;13825;53.496;10.020;2023-02-12T03:41:30;6.20;99.90
26051;DHT22;13825;53.496;10.020;2023-02-12T03:44:08;6.20;99.90
26051;DHT22;13825;53.496;10.020;2023-02-12T03:46:58;6.20;99.90
26051;DHT22;13825;53.496;10.020;2023-02-12T03:49:51;6.20;99.90
26051;DHT22;13825;53.496;10.020;2023-02-12T03:52:29;6.20;99.90
26051;DHT22;13825;53.496;10.020;2023-02-12T03:55:15;6.20;99.90
26051;DHT22;13825;53.496;10.020;2023-02-12T03:57:56;6.20;99.90
26051;DHT22;13825;53.496;10.020;2023-02-12T04:00:44;6.20;99.90
26051;DHT22;13825;53.496;10.020;2023-02-12T04:03:28;6.20;99.90
26051;DHT22;13825;53.496;10.020;2023-02-12T04:06:14;6.20;99.90
26051;DHT22;13825;53.496;10.020;2023-02-12T04:08:49;6.20;99.90
26051;DHT22;13825;53.496;10.020;2023-02-12T04:12:07;6.20;99.90
26051;DHT22;13825;53.496;10.020;2023-02-12T04:14:54;6.20;99.90
26051;DHT22;13825;53.496;10.020;2023-02-12T04:17:48;6.20;99.90
26051;DHT22;13825;53.496;10.020;2023-02-12T04:21:05;6.20;99.90
26051;DHT22;13825;53.496;10.020;2023-02-12T04:24:05;6.20;99.90
26051;DHT22;13825;53.496;10.020;2023-02-12T04:30:10;6.20;99.90
26051;DHT22;13825;53.496;10.020;2023-02-12T04:32:52;6.20;99.90
26051;DHT22;13825;53.496;10.020;2023-02-12T04:35:50;6.20;99.90
26051;DHT22;13825;53.496;10.020;2023-02-12T04:38:43;6.20;99.90
26051;DHT22;13825;53.496;10.020;2023-02-12T04:41:39;6.20;99.90
26051;DHT22;13825;53.496;10.020;2023-02-12T04:44:28;6.20;99.90
26051;DHT22;13825;53.496;10.020;2023-02-12T04:47:27;6.20;99.90
26051;DHT22;13825;53.496;10.020;2023-02-12T04:50:03;6.20;99.90
26051;DHT22;13825;53.496;10.020;2023-02-12T04:52:56;6.20;99.90
26051;DHT22;13825;53.496;10.020;2023-02-12T04:55:34;6.20;99.90
26051;DHT22;13825;53.496;10.020;2023-02-12T04:58:14;6.20;99.90
26051;DHT22;13825;53.496;10.020;2023-02-12T05:03:39;6.20;99.90
26051;DHT22;13825;53.496;10.020;2023-02-12T05:06:20;6.20;99.90
26051;DHT22;13825;53.496;10.020;2023-02-12T05:09:06;6.20;99.90
26051;DHT22;13825;53.496;10.020;2023-02-12T05:11:46;6.30;99.90
26051;DHT22;13825;53.496;10.020;2023-02-12T05:14:20;6.30;99.90
26051;DHT22;13825;53.496;10.020;2023-02-12T05:17:13;6.30;99.90
26051;DHT22;13825;53.496;10.020;2023-02-12T05:20:07;6.30;99.90
26051;DHT22;13825;53.496;10.020;2023-02-12T05:22:52;6.30;99.90
26051;DHT22;13825;53.496;10.020;2023-02-12T05:25:30;6.20;99.90
26051;DHT22;13825;53.496;10.020;2023-02-12T05:33:43;6.30;99.90
26051;DHT22;13825;53.496;10.020;2023-02-12T05:36:28;6.30;99.90
26051;DHT22;13825;53.496;10.020;2023-02-12T05:39:14;6.30;99.90
26051;DHT22;13825;53.496;10.020;2023-02-12T05:41:48;6.30;99.90
26051;DHT22;13825;53.496;10.020;2023-02-12T05:44:34;6.40;99.90
26051;DHT22;13825;53.496;10.020;2023-02-12T05:50:03;6.40;99.90
26051;DHT22;13825;53.496;10.020;2023-02-12T05:56:17;6.40;99.90
26051;DHT22;13825;53.496;10.020;2023-02-12T06:02:11;6.40;99.90
26051;DHT22;13825;53.496;10.020;2023-02-12T06:43:00;6.50;99.90
26051;DHT22;13825;53.496;10.020;2023-02-12T06:46:04;6.50;99.90
26051;DHT22;13825;53.496;10.020;2023-02-12T06:49:24;6.50;99.90
26051;DHT22;13825;53.496;10.020;2023-02-12T06:51:53;6.50;99.90
26051;DHT22;13825;53.496;10.020;2023-02-12T06:54:35;6.50;99.90
26051;DHT22;13825;53.496;10.020;2023-02-12T07:04:30;6.50;99.90
26051;DHT22;13825;53.496;10.020;2023-02-12T07:07:13;6.50;99.90
26051;DHT22;13825;53.496;10.020;2023-02-12T07:10:11;6.60;99.90
26051;DHT22;13825;53.496;10.020;2023-02-12T07:12:56;6.60;99.90
26051;DHT22;13825;53.496;10.020;2023-02-12T07:15:39;6.60;99.90
26051;DHT22;13825;53.496;10.020;2023-02-12T07:18:30;6.60;99.90
26051;DHT22;13825;53.496;10.020;2023-02-12T07:21:22;6.60;99.90
26051;DHT22;13825;53.496;10.020;2023-02-12T07:23:56;6.60;99.90
26051;DHT22;13825;53.496;10.020;2023-02-12T07:26:43;6.60;99.90
26051;DHT22;13825;53.496;10.020;2023-02-12T07:29:12;6.60;99.90
26051;DHT22;13825;53.496;10.020;2023-02-12T07:31:50;6.60;99.90
26051;DHT22;13825;53.496;10.020;2023-02-12T07:34:33;6.60;99.90
26051;DHT22;13825;53.496;10.020;2023-02-12T07:37:17;6.70;99.90
26051;DHT22;13825;53.496;10.020;2023-02-12T07:39:47;6.70;99.90
26051;DHT22;13825;53.496;10.020;2023-02-12T07:45:28;6.70;99.90
26051;DHT22;13825;53.496;10.020;2023-02-12T07:48:04;6.70;99.90
26051;DHT22;13825;53.496;10.020;2023-02-12T07:50:31;6.70;99.90
26051;DHT22;13825;53.496;10.020;2023-02-12T07:52:59;6.70;99.90
26051;DHT22;13825;53.496;10.020;2023-02-12T07:55:26;6.70;99.90
26051;DHT22;13825;53.496;10.020;2023-02-12T07:57:53;6.80;99.90
26051;DHT22;13825;53.496;10.020;2023-02-12T08:00:20;6.80;99.90
26051;DHT22;13825;53.496;10.020;2023-02-12T08:02:51;6.80;99.90
26051;DHT22;13825;53.496;10.020;2023-02-12T08:05:18;6.80;99.90
26051;DHT22;13825;53.496;10.020;2023-02-12T08:07:45;6.80;99.90
26051;DHT22;13825;53.496;10.020;2023-02-12T08:10:14;6.80;99.90
26051;DHT22;13825;53.496;10.020;2023-02-12T08:12:41;6.90;99.90
26051;DHT22;13825;53.496;10.020;2023-02-12T08:15:08;6.90;99.90
26051;DHT22;13825;53.496;10.020;2023-02-12T08:17:35;6.90;99.90
26051;DHT22;13825;53.496;10.020;2023-02-12T08:20:02;6.90;99.90
26051;DHT22;13825;53.496;10.020;2023-02-12T08:22:29;6.90;99.90
26051;DHT22;13825;53.496;10.020;2023-02-12T08:24:56;6.90;99.90
26051;DHT22;13825;53.496;10.020;2023-02-12T08:27:24;7.00;99.90
26051;DHT22;13825;53.496;10.020;2023-02-12T08:29:51;7.00;99.90
26051;DHT22;13825;53.496;10.020;2023-02-12T08:32:40;7.00;99.90
26051;DHT22;13825;53.496;10.020;2023-02-12T08:35:24;7.00;99.90
26051;DHT22;13825;53.496;10.020;2023-02-12T08:38:17;7.00;99.90
26051;DHT22;13825;53.496;10.020;2023-02-12T08:41:17;7.00;99.90
26051;DHT22;13825;53.496;10.020;2023-02-12T08:44:09;7.10;99.90
26051;DHT22;13825;53.496;10.020;2023-02-12T08:47:20;7.00;99.90
26051;DHT22;13825;53.496;10.020;2023-02-12T08:50:27;7.00;99.90
26051;DHT22;13825;53.496;10.020;2023-02-12T08:56:27;7.10;99.90
26051;DHT22;13825;53.496;10.020;2023-02-12T09:08:55;7.20;99.90
26051;DHT22;13825;53.496;10.020;2023-02-12T09:11:35;7.20;99.90
26051;DHT22;13825;53.496;10.020;2023-02-12T09:14:23;7.20;99.90
26051;DHT22;13825;53.496;10.020;2023-02-12T09:17:45;7.30;99.90
26051;DHT22;13825;53.496;10.020;2023-02-12T09:20:32;7.30;99.90
26051;DHT22;13825;53.496;10.020;2023-02-12T09:23:15;7.40;99.90
26051;DHT22;13825;53.496;10.020;2023-02-12T09:25:48;7.50;99.90
26051;DHT22;13825;53.496;10.020;2023-02-12T09:28:45;7.50;99.90
26051;DHT22;13825;53.496;10.020;2023-02-12T09:31:23;7.50;99.90
26051;DHT22;13825;53.496;10.020;2023-02-12T09:34:16;7.50;99.90
26051;DHT22;13825;53.496;10.020;2023-02-12T09:36:48;7.50;99.90
26051;DHT22;13825;53.496;10.020;2023-02-12T09:39:32;7.50;99.90
26051;DHT22;13825;53.496;10.020;2023-02-12T09:44:59;7.60;99.90
26051;DHT22;13825;53.496;10.020;2023-02-12T09:47:52;7.60;99.90
26051;DHT22;13825;53.496;10.020;2023-02-12T09:50:56;7.70;99.90
26051;DHT22;13825;53.496;10.020;2023-02-12T09:53:42;7.70;99.90
26051;DHT22;13825;53.496;10.020;2023-02-12T09:56:38;7.70;99.90
26051;DHT22;13825;53.496;10.020;2023-02-12T09:59:22;7.70;99.90
26051;DHT22;13825;53.496;10.020;2023-02-12T10:02:12;7.70;99.90
26051;DHT22;13825;53.496;10.020;2023-02-12T10:04:44;7.80;99.90
26051;DHT22;13825;53.496;10.020;2023-02-12T10:07:35;7.80;99.90
26051;DHT22;13825;53.496;10.020;2023-02-12T10:10:28;7.80;99.90
26051;DHT22;13825;53.496;10.020;2023-02-12T10:13:07;7.90;99.90
26051;DHT22;13825;53.496;10.020;2023-02-12T10:15:49;7.90;99.90
26051;DHT22;13825;53.496;10.020;2023-02-12T10:18:33;7.90;99.90
26051;DHT22;13825;53.496;10.020;2023-02-12T10:21:13;7.90;99.90
26051;DHT22;13825;53.496;10.020;2023-02-12T10:24:01;7.90;99.90
26051;DHT22;13825;53.496;10.020;2023-02-12T10:26:33;7.90;99.90
26051;DHT22;13825;53.496;10.020;2023-02-12T10:29:12;7.90;99.90
26051;DHT22;13825;53.496;10.020;2023-02-12T10:31:53;7.90;99.90
26051;DHT22;13825;53.496;10.020;2023-02-12T10:34:27;8.00;99.90
26051;DHT22;13825;53.496;10.020;2023-02-12T10:37:02;8.00;99.90
26051;DHT22;13825;53.496;10.020;2023-02-12T10:39:35;8.00;99.90
26051;DHT22;13825;53.496;10.020;2023-02-12T10:42:15;8.00;99.90
26051;DHT22;13825;53.496;10.020;2023-02-12T10:44:51;8.00;99.90
26051;DHT22;13825;53.496;10.020;2023-02-12T10:47:23;8.10;99.90
26051;DHT22;13825;53.496;10.020;2023-02-12T10:49:58;8.10;99.90
26051;DHT22;13825;53.496;10.020;2023-02-12T10:52:46;8.10;99.90
26051;DHT22;13825;53.496;10.020;2023-02-12T10:55:29;8.00;99.90
26051;DHT22;13825;53.496;10.020;2023-02-12T10:57:57;8.00;99.90
26051;DHT22;13825;53.496;10.020;2023-02-12T11:00:32;8.00;99.90
26051;DHT22;13825;53.496;10.020;2023-02-12T11:03:20;7.90;99.90
26051;DHT22;13825;53.496;10.020;2023-02-12T11:05:52;8.00;99.90
26051;DHT22;13825;53.496;10.020;2023-02-12T11:08:35;8.00;99.90
26051;DHT22;13825;53.496;10.020;2023-02-12T11:11:20;7.90;99.90
26051;DHT22;13825;53.496;10.020;2023-02-12T11:13:57;7.90;99.90
26051;DHT22;13825;53.496;10.020;2023-02-12T11:16:30;8.00;99.90
26051;DHT22;13825;53.496;10.020;2023-02-12T11:19:17;8.00;99.90
26051;DHT22;13825;53.496;10.020;2023-02-12T11:22:15;7.90;99.90
26051;DHT22;13825;53.496;10.020;2023-02-12T11:24:59;7.90;99.90
26051;DHT22;13825;53.496;10.020;2023-02-12T11:27:51;8.00;99.90
26051;DHT22;13825;53.496;10.020;2023-02-12T11:30:40;8.00;99.90
26051;DHT22;13825;53.496;10.020;2023-02-12T11:33:35;8.00;99.90
26051;DHT22;13825;53.496;10.020;2023-02-12T11:36:24;8.00;99.90
26051;DHT22;13825;53.496;10.020;2023-02-12T11:39:18;8.10;99.90
26051;DHT22;13825;53.496;10.020;2023-02-12T11:42:20;8.00;99.90
26051;DHT22;13825;53.496;10.020;2023-02-12T11:45:16;8.10;99.90
26051;DHT22;13825;53.496;10.020;2023-02-12T11:47:55;8.10;99.90
26051;DHT22;13825;53.496;10.020;2023-02-12T11:50:40;8.00;99.90
26051;DHT22;13825;53.496;10.020;2023-02-12T11:53:39;8.10;99.90
26051;DHT22;13825;53.496;10.020;2023-02-12T11:56:12;8.10;99.90
26051;DHT22;13825;53.496;10.020;2023-02-12T11:58:48;8.10;99.90
26051;DHT22;13825;53.496;10.020;2023-02-12T12:01:32;8.10;99.90
26051;DHT22;13825;53.496;10.020;2023-02-12T12:04:20;8.20;99.90
26051;DHT22;13825;53.496;10.020;2023-02-12T12:07:16;8.10;99.90
26051;DHT22;13825;53.496;10.020;2023-02-12T12:09:57;8.10;99.90
26051;DHT22;13825;53.496;10.020;2023-02-12T12:12:42;8.10;99.90
26051;DHT22;13825;53.496;10.020;2023-02-12T12:15:24;8.00;99.90
26051;DHT22;13825;53.496;10.020;2023-02-12T12:18:24;8.00;99.90
26051;DHT22;13825;53.496;10.020;2023-02-12T12:21:27;8.00;99.90
26051;DHT22;13825;53.496;10.020;2023-02-12T12:24:10;8.10;99.90
26051;DHT22;13825;53.496;10.020;2023-02-12T12:27:15;8.20;99.90
26051;DHT22;13825;53.496;10.020;2023-02-12T12:30:19;8.40;99.90
26051;DHT22;13825;53.496;10.020;2023-02-12T12:32:58;8.40;99.90
26051;DHT22;13825;53.496;10.020;2023-02-12T12:35:44;8.50;99.90
26051;DHT22;13825;53.496;10.020;2023-02-12T12:38:22;8.50;99.90
26051;DHT22;13825;53.496;10.020;2023-02-12T12:41:17;8.40;99.90
26051;DHT22;13825;53.496;10.020;2023-02-12T12:44:12;8.40;99.90
26051;DHT22;13825;53.496;10.020;2023-02-12T12:46:49;8.50;99.90
26051;DHT22;13825;53.496;10.020;2023-02-12T12:49:47;8.60;99.90
26051;DHT22;13825;53.496;10.020;2023-02-12T12:52:49;8.60;99.90
26051;DHT22;13825;53.496;10.020;2023-02-12T12:58:39;8.50;99.90
26051;DHT22;13825;53.496;10.020;2023-02-12T13:01:30;8.50;99.90
26051;DHT22;13825;53.496;10.020;2023-02-12T13:04:36;8.50;99.90
26051;DHT22;13825;53.496;10.020;2023-02-12T13:07:25;8.60;99.90
26051;DHT22;13825;53.496;10.020;2023-02-12T13:10:19;8.60;99.90
26051;DHT22;13825;53.496;10.020;2023-02-12T13:13:30;8.70;99.90
26051;DHT22;13825;53.496;10.020;2023-02-12T13:16:22;8.60;99.90
26051;DHT22;13825;53.496;10.020;2023-02-12T13:19:13;8.60;99.90
26051;DHT22;13825;53.496;10.020;2023-02-12T13:22:01;8.60;99.90
26051;DHT22;13825;53.496;10.020;2023-02-12T13:24:56;8.60;99.90
26051;DHT22;13825;53.496;10.020;2023-02-12T13:27:34;8.50;99.90
26051;DHT22;13825;53.496;10.020;2023-02-12T13:30:21;8.50;99.90
26051;DHT22;13825;53.496;10.020;2023-02-12T13:33:08;8.40;99.90
26051;DHT22;13825;53.496;10.020;2023-02-12T13:35:44;8.40;99.90
26051;DHT22;13825;53.496;10.020;2023-02-12T13:38:21;8.40;99.90
26051;DHT22;13825;53.496;10.020;2023-02-12T13:41:02;8.30;99.90
26051;DHT22;13825;53.496;10.020;2023-02-12T13:43:48;8.30;99.90
26051;DHT22;13825;53.496;10.020;2023-02-12T13:46:39;8.30;99.90
26051;DHT22;13825;53.496;10.020;2023-02-12T13:49:20;8.30;99.90
26051;DHT22;13825;53.496;10.020;2023-02-12T13:51:55;8.30;99.90
26051;DHT22;13825;53.496;10.020;2023-02-12T13:54:35;8.30;99.90
26051;DHT22;13825;53.496;10.020;2023-02-12T13:57:14;8.20;99.90
26051;DHT22;13825;53.496;10.020;2023-02-12T13:59:56;8.20;99.90
26051;DHT22;13825;53.496;10.020;2023-02-12T14:02:45;8.30;99.90
26051;DHT22;13825;53.496;10.020;2023-02-12T14:05:27;8.20;99.90
26051;DHT22;13825;53.496;10.020;2023-02-12T14:08:32;8.20;99.90
26051;DHT22;13825;53.496;10.020;2023-02-12T14:11:04;8.20;99.90
26051;DHT22;13825;53.496;10.020;2023-02-12T14:13:55;8.20;99.90
26051;DHT22;13825;53.496;10.020;2023-02-12T14:16:38;8.20;99.90
26051;DHT22;13825;53.496;10.020;2023-02-12T14:19:40;8.20;99.90
26051;DHT22;13825;53.496;10.020;2023-02-12T14:25:53;8.10;99.90
26051;DHT22;13825;53.496;10.020;2023-02-12T14:28:48;8.10;99.90
26051;DHT22;13825;53.496;10.020;2023-02-12T14:34:39;8.00;99.90
26051;DHT22;13825;53.496;10.020;2023-02-12T14:37:44;8.00;99.90
26051;DHT22;13825;53.496;10.020;2023-02-12T14:40:37;8.00;99.90
26051;DHT22;13825;53.496;10.020;2023-02-12T14:43:40;7.90;99.90
26051;DHT22;13825;53.496;10.020;2023-02-12T14:46:48;7.90;99.90
26051;DHT22;13825;53.496;10.020;2023-02-12T14:49:26;8.00;99.90
26051;DHT22;13825;53.496;10.020;2023-02-12T14:52:11;8.00;99.90
26051;DHT22;13825;53.496;10.020;2023-02-12T14:55:04;8.00;99.90
26051;DHT22;13825;53.496;10.020;2023-02-12T14:57:45;8.00;99.90
26051;DHT22;13825;53.496;10.020;2023-02-12T15:00:33;8.00;99.90
26051;DHT22;13825;53.496;10.020;2023-02-12T15:03:21;8.00;99.90
26051;DHT22;13825;53.496;10.020;2023-02-12T15:05:58;8.00;99.90
26051;DHT22;13825;53.496;10.020;2023-02-12T15:08:35;7.90;99.90
26051;DHT22;13825;53.496;10.020;2023-02-12T15:11:18;7.90;99.90
26051;DHT22;13825;53.496;10.020;2023-02-12T15:13:51;7.90;99.90
26051;DHT22;13825;53.496;10.020;2023-02-12T15:19:25;8.00;99.90
26051;DHT22;13825;53.496;10.020;2023-02-12T15:22:08;8.00;99.90
26051;DHT22;13825;53.496;10.020;2023-02-12T15:24:50;8.00;99.90
26051;DHT22;13825;53.496;10.020;2023-02-12T15:27:26;7.90;99.90
26051;DHT22;13825;53.496;10.020;2023-02-12T15:30:21;7.90;99.90
26051;DHT22;13825;53.496;10.020;2023-02-12T15:33:07;7.90;99.90
26051;DHT22;13825;53.496;10.020;2023-02-12T15:35:43;7.90;99.90
26051;DHT22;13825;53.496;10.020;2023-02-12T15:38:24;8.00;99.90
26051;DHT22;13825;53.496;10.020;2023-02-12T15:41:08;8.00;99.90
26051;DHT22;13825;53.496;10.020;2023-02-12T15:43:53;8.00;99.90
26051;DHT22;13825;53.496;10.020;2023-02-12T15:46:32;7.90;99.90
26051;DHT22;13825;53.496;10.020;2023-02-12T15:52:34;7.90;99.90
26051;DHT22;13825;53.496;10.020;2023-02-12T15:55:21;7.90;99.90
26051;DHT22;13825;53.496;10.020;2023-02-12T15:57:52;7.80;99.90
26051;DHT22;13825;53.496;10.020;2023-02-12T16:00:36;7.80;99.90
26051;DHT22;13825;53.496;10.020;2023-02-12T16:03:19;7.70;99.90
26051;DHT22;13825;53.496;10.020;2023-02-12T16:05:49;7.70;99.90
26051;DHT22;13825;53.496;10.020;2023-02-12T16:08:28;7.70;99.90
26051;DHT22;13825;53.496;10.020;2023-02-12T16:10:57;7.70;99.90
26051;DHT22;13825;53.496;10.020;2023-02-12T16:13:41;7.70;99.90
26051;DHT22;13825;53.496;10.020;2023-02-12T16:16:17;7.70;99.90
26051;DHT22;13825;53.496;10.020;2023-02-12T16:18:44;7.60;99.90
26051;DHT22;13825;53.496;10.020;2023-02-12T16:21:15;7.60;99.90
26051;DHT22;13825;53.496;10.020;2023-02-12T16:23:45;7.60;99.90
26051;DHT22;13825;53.496;10.020;2023-02-12T16:26:17;7.60;99.90
26051;DHT22;13825;53.496;10.020;2023-02-12T16:28:45;7.60;99.90
26051;DHT22;13825;53.496;10.020;2023-02-12T16:31:15;7.60;99.90
26051;DHT22;13825;53.496;10.020;2023-02-12T16:33:48;7.60;99.90
26051;DHT22;13825;53.496;10.020;2023-02-12T16:36:30;7.60;99.90
26051;DHT22;13825;53.496;10.020;2023-02-12T16:39:05;7.60;99.90
26051;DHT22;13825;53.496;10.020;2023-02-12T16:41:52;7.60;99.90
26051;DHT22;13825;53.496;10.020;2023-02-12T16:44:25;7.60;99.90
26051;DHT22;13825;53.496;10.020;2023-02-12T16:46:57;7.60;99.90
26051;DHT22;13825;53.496;10.020;2023-02-12T16:49:26;7.60;99.90
26051;DHT22;13825;53.496;10.020;2023-02-12T16:52:18;7.60;99.90
26051;DHT22;13825;53.496;10.020;2023-02-12T16:55:04;7.50;99.90
26051;DHT22;13825;53.496;10.020;2023-02-12T16:57:52;7.60;99.90
26051;DHT22;13825;53.496;10.020;2023-02-12T17:00:25;7.50;99.90
26051;DHT22;13825;53.496;10.020;2023-02-12T17:03:01;7.50;99.90
26051;DHT22;13825;53.496;10.020;2023-02-12T17:05:37;7.50;99.90
26051;DHT22;13825;53.496;10.020;2023-02-12T17:08:20;7.60;99.90
26051;DHT22;13825;53.496;10.020;2023-02-12T17:11:05;7.50;99.90
26051;DHT22;13825;53.496;10.020;2023-02-12T17:13:37;7.50;99.90
26051;DHT22;13825;53.496;10.020;2023-02-12T17:16:22;7.50;99.90
26051;DHT22;13825;53.496;10.020;2023-02-12T17:18:54;7.50;99.90
26051;DHT22;13825;53.496;10.020;2023-02-12T17:21:24;7.50;99.90
26051;DHT22;13825;53.496;10.020;2023-02-12T17:23:51;7.40;99.90
26051;DHT22;13825;53.496;10.020;2023-02-12T17:26:21;7.40;99.90
26051;DHT22;13825;53.496;10.020;2023-02-12T17:28:48;7.40;99.90
26051;DHT22;13825;53.496;10.020;2023-02-12T17:31:15;7.40;99.90
26051;DHT22;13825;53.496;10.020;2023-02-12T17:33:45;7.40;99.90
26051;DHT22;13825;53.496;10.020;2023-02-12T17:36:31;7.40;99.90
26051;DHT22;13825;53.496;10.020;2023-02-12T17:39:02;7.40;99.90
26051;DHT22;13825;53.496;10.020;2023-02-12T17:41:46;7.40;99.90
26051;DHT22;13825;53.496;10.020;2023-02-12T17:44:13;7.30;99.90
26051;DHT22;13825;53.496;10.020;2023-02-12T17:46:43;7.30;99.90
26051;DHT22;13825;53.496;10.020;2023-02-12T17:49:15;7.30;99.90
26051;DHT22;13825;53.496;10.020;2023-02-12T17:51:45;7.30;99.90
26051;DHT22;13825;53.496;10.020;2023-02-12T17:54:13;7.30;99.90
26051;DHT22;13825;53.496;10.020;2023-02-12T17:56:43;7.30;99.90
26051;DHT22;13825;53.496;10.020;2023-02-12T17:59:10;7.30;99.90
26051;DHT22;13825;53.496;10.020;2023-02-12T18:01:37;7.30;99.90
26051;DHT22;13825;53.496;10.020;2023-02-12T18:04:05;7.20;99.90
26051;DHT22;13825;53.496;10.020;2023-02-12T18:06:45;7.20;99.90
26051;DHT22;13825;53.496;10.020;2023-02-12T18:09:15;7.20;99.90
26051;DHT22;13825;53.496;10.020;2023-02-12T18:11:43;7.20;99.90
26051;DHT22;13825;53.496;10.020;2023-02-12T18:14:10;7.20;99.90
26051;DHT22;13825;53.496;10.020;2023-02-12T18:16:37;7.20;99.90
26051;DHT22;13825;53.496;10.020;2023-02-12T18:19:04;7.10;99.90
26051;DHT22;13825;53.496;10.020;2023-02-12T18:21:34;7.20;99.90
26051;DHT22;13825;53.496;10.020;2023-02-12T18:24:03;7.10;99.90
26051;DHT22;13825;53.496;10.020;2023-02-12T18:26:31;7.10;99.90
26051;DHT22;13825;53.496;10.020;2023-02-12T18:29:01;7.10;99.90
26051;DHT22;13825;53.496;10.020;2023-02-12T18:31:28;7.10;99.90
26051;DHT22;13825;53.496;10.020;2023-02-12T18:33:55;7.10;99.90
26051;DHT22;13825;53.496;10.020;2023-02-12T18:36:25;7.10;99.90
26051;DHT22;13825;53.496;10.020;2023-02-12T18:38:52;7.10;99.90
26051;DHT22;13825;53.496;10.020;2023-02-12T18:41:23;7.10;99.90
26051;DHT22;13825;53.496;10.020;2023-02-12T18:43:51;7.10;99.90
26051;DHT22;13825;53.496;10.020;2023-02-12T18:46:21;7.10;99.90
26051;DHT22;13825;53.496;10.020;2023-02-12T18:48:48;7.10;99.90
26051;DHT22;13825;53.496;10.020;2023-02-12T18:51:17;7.10;99.90
26051;DHT22;13825;53.496;10.020;2023-02-12T18:53:45;7.10;99.90
26051;DHT22;13825;53.496;10.020;2023-02-12T18:56:12;7.10;99.90